LFKJ

Ajaccio-Napoléon Bonaparte Airport

Airport
ICAO code
LFKJ
IATA Code
AJA
Summary
ICAO Region
EUR
ICAO Territory
Location

Ajaccio, Corse

Serving
Ajaccio
Elevation
18 ft
Coordinates
41° 55' 25" N , 8° 48' 11" E
KCC
Metar
LFKJ 181330Z AUTO 20011KT CAVOK 23/17 Q1011 NOSIG

Runways

Designator Length Width Surface Rops
2/20 2407 45 ASP Yes/Yes

Airport map

Aerial View

SKYbrary Partners:

Safety knowledge contributed by: